Time;durP1;ratioP1;P1;durP2;ratioP2;P2;SDS_P1;SDS_P2;PMS_P1;PMS_P2;Temp;Humidity;BMP_temperature;BMP_pressure;BME280_temperature;BME280_humidity;BME280_pressure;Samples;Min_cycle;Max_cycle;Signal;HPM_P1;HPM_P2
2021/06/21 00:02:26;;;;;;;16.97;15.37;;;25.90;99.90;;;;;;6314363;28;20681;-60
2021/06/21 00:05:29;;;;;;;16.70;15.40;;;25.90;99.90;;;;;;6322473;28;20554;-62
2021/06/21 00:08:32;;;;;;;17.40;16.00;;;25.90;99.90;;;;;;6298975;28;20218;-60
2021/06/21 00:11:37;;;;;;;17.03;15.73;;;25.90;99.90;;;;;;6297990;28;20210;-61
2021/06/21 00:14:41;;;;;;;17.50;16.07;;;25.90;99.90;;;;;;6297777;28;20210;-61
2021/06/21 00:17:44;;;;;;;16.87;15.30;;;25.90;99.90;;;;;;6297971;28;20230;-60
2021/06/21 00:20:49;;;;;;;17.90;16.13;;;25.80;99.90;;;;;;6298545;28;20277;-60
2021/06/21 00:23:52;;;;;;;16.23;14.63;;;25.80;99.90;;;;;;6297827;28;20226;-60
2021/06/21 00:26:57;;;;;;;16.77;15.40;;;25.70;99.90;;;;;;6298017;28;20234;-60
2021/06/21 00:30:00;;;;;;;16.57;15.27;;;25.60;99.90;;;;;;6298141;28;20643;-60
2021/06/21 00:33:03;;;;;;;16.47;14.80;;;25.60;99.90;;;;;;6297518;28;20222;-60
2021/06/21 00:36:07;;;;;;;17.23;15.73;;;25.60;99.90;;;;;;6298134;28;20245;-64
2021/06/21 00:39:10;;;;;;;16.80;15.43;;;25.60;99.90;;;;;;6298045;28;20222;-64
2021/06/21 00:42:15;;;;;;;18.47;16.37;;;25.50;99.90;;;;;;6298061;28;20561;-64
2021/06/21 00:45:21;;;;;;;18.23;16.60;;;25.60;99.90;;;;;;6299836;28;20233;-64
2021/06/21 00:48:25;;;;;;;18.27;16.50;;;25.60;99.90;;;;;;6302601;28;20313;-64
2021/06/21 00:51:30;;;;;;;19.17;17.67;;;25.60;99.90;;;;;;6302098;28;20561;-64
2021/06/21 00:54:33;;;;;;;16.33;15.03;;;25.60;99.90;;;;;;6302407;28;20252;-64
2021/06/21 00:57:39;;;;;;;18.57;17.17;;;25.60;99.90;;;;;;6302195;28;20242;-64
2021/06/21 01:00:42;;;;;;;17.30;15.90;;;25.60;99.90;;;;;;6302632;28;20233;-64
2021/06/21 01:03:45;;;;;;;17.63;16.23;;;25.60;99.90;;;;;;6302674;28;20230;-64
2021/06/21 01:06:49;;;;;;;19.50;17.57;;;25.60;99.90;;;;;;6302377;28;20234;-64
2021/06/21 01:09:55;;;;;;;17.97;16.57;;;25.60;99.90;;;;;;6302299;28;20234;-64
2021/06/21 01:13:30;;;;;;;17.97;16.37;;;25.60;99.90;;;;;;6302282;28;20690;-64
2021/06/21 01:16:40;;;;;;;18.80;17.37;;;25.50;99.90;;;;;;6301740;28;20296;-65
2021/06/21 01:20:38;;;;;;;18.63;17.13;;;25.50;99.90;;;;;;6302019;28;20226;-64
2021/06/21 01:24:15;;;;;;;18.70;17.10;;;25.60;99.90;;;;;;6258640;28;20226;-64
2021/06/21 01:27:30;;;;;;;17.70;16.20;;;25.50;99.90;;;;;;6301580;28;20233;-64
2021/06/21 01:30:54;;;;;;;18.67;17.20;;;25.40;99.90;;;;;;6301948;28;20235;-64
2021/06/21 01:33:58;;;;;;;18.80;17.30;;;25.40;99.90;;;;;;6301834;28;20233;-64
2021/06/21 01:37:03;;;;;;;18.27;16.80;;;25.40;99.90;;;;;;6301381;28;20231;-65
2021/06/21 01:40:09;;;;;;;17.70;16.30;;;25.30;99.90;;;;;;6301786;28;20672;-64
2021/06/21 01:43:15;;;;;;;17.17;15.80;;;25.30;99.90;;;;;;6301452;28;20608;-64
2021/06/21 01:46:21;;;;;;;17.60;16.20;;;25.30;99.90;;;;;;6301417;28;20242;-64
2021/06/21 01:49:30;;;;;;;20.00;18.30;;;25.20;99.90;;;;;;6301395;28;20226;-65
2021/06/21 01:52:36;;;;;;;18.90;17.37;;;25.20;99.90;;;;;;6301340;28;20285;-64
2021/06/21 01:55:58;;;;;;;19.97;18.37;;;25.20;99.90;;;;;;6301417;28;20567;-64
2021/06/21 01:59:04;;;;;;;16.90;15.50;;;25.10;99.90;;;;;;6300374;28;20576;-64
2021/06/21 02:02:09;;;;;;;18.87;17.27;;;25.10;99.90;;;;;;6300922;28;20250;-64
2021/06/21 02:05:16;;;;;;;18.93;17.50;;;25.10;99.90;;;;;;6300862;28;20702;-65
2021/06/21 02:08:21;;;;;;;18.97;17.47;;;25.10;99.90;;;;;;6300944;28;20234;-65
2021/06/21 02:11:26;;;;;;;19.43;17.93;;;25.00;99.90;;;;;;6300586;28;20231;-65
2021/06/21 02:14:32;;;;;;;17.93;16.63;;;25.00;99.90;;;;;;6323360;28;20222;-65
2021/06/21 02:17:37;;;;;;;21.00;19.20;;;25.00;99.90;;;;;;6324925;28;20245;-66
2021/06/21 02:20:42;;;;;;;20.80;18.93;;;24.90;99.90;;;;;;6301372;28;20206;-66
2021/06/21 02:23:46;;;;;;;18.10;16.70;;;24.80;99.90;;;;;;6300285;28;20214;-66
2021/06/21 02:26:51;;;;;;;18.30;16.50;;;24.80;99.90;;;;;;6300274;28;20266;-66
2021/06/21 02:29:56;;;;;;;19.30;17.70;;;24.80;99.90;;;;;;6300206;28;20227;-67
2021/06/21 02:32:59;;;;;;;20.50;18.63;;;24.80;99.90;;;;;;6300751;28;20627;-67
2021/06/21 02:36:05;;;;;;;19.73;18.07;;;24.80;99.90;;;;;;6300232;28;20239;-67
2021/06/21 02:39:10;;;;;;;18.03;16.50;;;24.80;99.90;;;;;;6300183;28;20573;-67
2021/06/21 02:42:13;;;;;;;19.13;17.63;;;24.80;99.90;;;;;;6299747;28;20690;-68
2021/06/21 02:45:17;;;;;;;20.60;18.73;;;24.70;99.90;;;;;;6299370;28;20288;-66
2021/06/21 02:48:21;;;;;;;18.77;17.07;;;24.70;99.90;;;;;;6298708;28;20310;-67
2021/06/21 02:51:32;;;;;;;20.37;18.87;;;24.60;99.90;;;;;;6299746;28;20237;-68
2021/06/21 02:54:43;;;;;;;19.83;18.33;;;24.60;99.90;;;;;;6299234;28;20245;-65
2021/06/21 02:57:57;;;;;;;18.77;17.27;;;24.60;99.90;;;;;;6299537;28;20713;-65
2021/06/21 03:01:05;;;;;;;21.43;19.73;;;24.50;99.90;;;;;;6298798;28;20328;-69
2021/06/21 03:04:11;;;;;;;18.97;17.47;;;24.50;99.90;;;;;;6299297;28;20359;-68
2021/06/21 03:07:18;;;;;;;19.00;17.37;;;24.40;99.90;;;;;;6299472;28;20230;-66
2021/06/21 03:10:24;;;;;;;18.80;17.40;;;24.40;99.90;;;;;;6298154;28;20231;-65
2021/06/21 03:13:28;;;;;;;19.70;17.90;;;24.40;99.90;;;;;;6297891;28;20227;-66
2021/06/21 03:16:32;;;;;;;19.40;17.90;;;24.30;99.90;;;;;;6298735;28;20238;-65
2021/06/21 03:19:38;;;;;;;19.73;17.90;;;24.30;99.90;;;;;;6294013;28;20234;-65
2021/06/21 03:22:44;;;;;;;19.60;18.00;;;24.30;99.90;;;;;;6298837;28;20293;-66
2021/06/21 03:25:51;;;;;;;19.03;17.33;;;24.30;99.90;;;;;;6298616;28;20241;-65
2021/06/21 03:28:55;;;;;;;19.07;17.43;;;24.30;99.90;;;;;;6299341;28;20230;-65
2021/06/21 03:32:23;;;;;;;20.90;19.00;;;24.30;99.90;;;;;;6298416;28;20230;-65
2021/06/21 03:35:28;;;;;;;20.00;18.50;;;24.30;99.90;;;;;;6298506;28;20233;-66
2021/06/21 03:38:33;;;;;;;20.30;18.77;;;24.20;99.90;;;;;;6298593;28;20227;-65
2021/06/21 03:41:37;;;;;;;19.43;17.63;;;24.20;99.90;;;;;;6299388;28;20210;-65
2021/06/21 03:44:40;;;;;;;19.43;17.83;;;24.20;99.90;;;;;;6298750;28;20202;-65
2021/06/21 03:47:43;;;;;;;19.63;18.10;;;24.20;99.90;;;;;;6298118;28;20548;-65
2021/06/21 03:50:47;;;;;;;19.50;17.80;;;24.20;99.90;;;;;;6298793;28;20226;-63
2021/06/21 03:53:52;;;;;;;20.57;18.97;;;24.20;99.90;;;;;;6298086;28;20559;-62
2021/06/21 03:56:55;;;;;;;19.20;17.60;;;24.30;99.90;;;;;;6298518;28;20577;-63
2021/06/21 03:59:58;;;;;;;20.33;18.83;;;24.30;99.90;;;;;;6298165;28;20230;-63
2021/06/21 04:03:02;;;;;;;18.97;17.57;;;24.30;99.90;;;;;;6302955;28;20230;-63
2021/06/21 04:06:06;;;;;;;19.93;18.33;;;24.30;99.90;;;;;;6317924;28;20230;-63
2021/06/21 04:09:11;;;;;;;19.67;18.20;;;24.40;99.90;;;;;;6299000;28;20227;-64
2021/06/21 04:12:15;;;;;;;20.83;19.13;;;24.40;99.90;;;;;;6298883;28;20239;-63
2021/06/21 04:15:20;;;;;;;20.90;19.30;;;24.40;99.90;;;;;;6298665;28;20238;-63
2021/06/21 04:18:25;;;;;;;20.23;18.80;;;24.50;99.90;;;;;;6298639;28;20227;-63
2021/06/21 04:21:28;;;;;;;19.80;18.30;;;24.60;99.90;;;;;;6302342;28;20242;-63
2021/06/21 04:24:32;;;;;;;20.37;18.37;;;24.70;99.90;;;;;;6294182;28;20226;-64
2021/06/21 04:27:36;;;;;;;20.17;18.60;;;24.60;99.90;;;;;;6303236;28;20305;-64
2021/06/21 04:30:39;;;;;;;20.30;18.80;;;24.60;99.90;;;;;;6302898;28;20227;-64
2021/06/21 04:33:43;;;;;;;21.07;19.43;;;24.70;99.90;;;;;;6302929;28;20621;-64
2021/06/21 04:36:46;;;;;;;20.40;18.60;;;24.80;99.90;;;;;;6302459;28;20261;-65
2021/06/21 04:39:50;;;;;;;20.60;19.10;;;24.90;99.90;;;;;;6302750;28;20227;-64
2021/06/21 04:42:54;;;;;;;21.43;19.60;;;24.90;99.90;;;;;;6302957;28;20230;-64
2021/06/21 04:45:57;;;;;;;21.10;19.50;;;24.90;99.90;;;;;;6302542;28;20537;-64
2021/06/21 04:49:01;;;;;;;20.40;18.90;;;24.90;99.90;;;;;;6303047;28;20238;-63
2021/06/21 04:52:08;;;;;;;22.37;20.57;;;25.00;99.90;;;;;;6302714;28;20238;-63
2021/06/21 04:55:14;;;;;;;21.03;18.97;;;25.00;99.90;;;;;;6302865;28;20238;-63
2021/06/21 04:58:17;;;;;;;20.13;18.40;;;25.00;99.90;;;;;;6302526;28;20231;-63
2021/06/21 05:01:21;;;;;;;19.63;18.10;;;25.10;99.90;;;;;;6302763;28;20227;-64
2021/06/21 05:04:24;;;;;;;21.80;19.87;;;25.20;99.90;;;;;;6302159;28;20698;-63
2021/06/21 05:07:27;;;;;;;21.47;19.77;;;25.20;99.90;;;;;;6293862;28;20223;-63
2021/06/21 05:10:32;;;;;;;21.87;19.97;;;25.20;99.90;;;;;;6277436;28;20569;-63
2021/06/21 05:13:35;;;;;;;22.10;20.40;;;25.20;99.90;;;;;;6277545;28;20232;-63
2021/06/21 05:16:38;;;;;;;22.10;20.40;;;25.30;99.90;;;;;;6277732;28;20231;-63
2021/06/21 05:19:43;;;;;;;23.07;21.37;;;25.20;99.90;;;;;;6277730;28;20231;-63
2021/06/21 05:22:48;;;;;;;22.50;20.87;;;25.30;99.90;;;;;;6278287;28;20239;-63
2021/06/21 05:25:53;;;;;;;23.30;21.23;;;25.30;99.90;;;;;;6280638;28;20239;-63
2021/06/21 05:28:56;;;;;;;22.50;20.80;;;25.30;99.90;;;;;;6267721;28;20246;-63
2021/06/21 05:32:01;;;;;;;24.53;22.60;;;25.40;99.90;;;;;;6277018;28;20242;-63
2021/06/21 05:35:05;;;;;;;24.00;22.03;;;25.50;99.90;;;;;;6277185;28;20228;-63
2021/06/21 05:38:08;;;;;;;24.07;22.17;;;25.60;99.90;;;;;;6277107;28;20253;-64
2021/06/21 05:41:13;;;;;;;22.97;21.27;;;25.80;99.90;;;;;;6277221;28;20559;-64
2021/06/21 05:44:16;;;;;;;24.77;22.87;;;26.00;99.90;;;;;;6276584;28;20231;-64
2021/06/21 05:47:19;;;;;;;22.47;20.77;;;26.20;99.90;;;;;;6275134;28;20550;-64
2021/06/21 05:50:22;;;;;;;22.90;21.00;;;26.40;99.90;;;;;;6274189;28;20537;-62
2021/06/21 05:53:28;;;;;;;22.80;20.87;;;26.70;99.90;;;;;;6274452;28;20234;-63
2021/06/21 05:56:32;;;;;;;23.70;21.50;;;26.90;99.90;;;;;;6274343;28;20548;-63
2021/06/21 05:59:36;;;;;;;22.90;21.00;;;27.00;99.90;;;;;;6275202;28;20241;-63
2021/06/21 06:02:39;;;;;;;23.33;21.43;;;27.20;99.90;;;;;;6276626;28;20221;-62
2021/06/21 06:05:42;;;;;;;22.80;21.00;;;27.40;99.90;;;;;;6276520;28;20206;-64
2021/06/21 06:08:46;;;;;;;22.50;20.70;;;27.50;99.90;;;;;;6276403;28;20219;-63
2021/06/21 06:11:51;;;;;;;22.50;20.70;;;27.60;99.90;;;;;;6274529;28;20230;-63
2021/06/21 06:14:54;;;;;;;24.17;21.70;;;27.80;99.60;;;;;;6274179;28;20226;-63
2021/06/21 06:17:57;;;;;;;22.27;20.37;;;28.00;99.10;;;;;;6273675;28;20231;-64
2021/06/21 06:21:00;;;;;;;22.53;20.60;;;28.20;98.70;;;;;;6274325;28;20265;-64
2021/06/21 06:24:13;;;;;;;22.87;21.00;;;28.40;98.30;;;;;;6273765;28;20234;-64
2021/06/21 06:27:18;;;;;;;22.30;20.60;;;28.70;97.70;;;;;;6275686;28;20237;-64
2021/06/21 06:30:22;;;;;;;21.30;19.60;;;29.10;96.90;;;;;;6271300;28;20292;-64
2021/06/21 06:33:25;;;;;;;20.40;18.90;;;29.40;96.50;;;;;;6275486;28;20571;-64
2021/06/21 06:36:28;;;;;;;20.70;19.10;;;29.90;95.60;;;;;;6275260;28;20227;-63
2021/06/21 06:39:32;;;;;;;20.90;19.20;;;30.20;94.70;;;;;;6275742;28;20223;-62
2021/06/21 06:42:36;;;;;;;20.40;19.00;;;30.70;93.90;;;;;;6274713;28;20683;-63
2021/06/21 06:45:39;;;;;;;21.70;20.02;;;31.10;92.50;;;;;;6275979;28;20245;-63
2021/06/21 06:48:43;;;;;;;20.58;19.02;;;31.30;91.80;;;;;;6275036;28;20227;-64
2021/06/21 06:51:49;;;;;;;19.73;18.23;;;31.20;91.70;;;;;;6275106;28;20545;-63
2021/06/21 06:58:10;;;;;;;20.40;19.00;;;31.10;91.20;;;;;;6275047;28;20246;-63
2021/06/21 07:01:14;;;;;;;22.05;20.25;;;31.10;91.50;;;;;;6288301;28;20230;-64
2021/06/21 07:04:17;;;;;;;23.83;21.92;;;31.30;91.70;;;;;;6299343;28;20253;-63
2021/06/21 07:07:20;;;;;;;23.35;21.70;;;32.20;90.10;;;;;;6285976;28;20237;-64
2021/06/21 07:10:24;;;;;;;22.05;20.52;;;32.60;87.20;;;;;;6286621;28;20678;-64
2021/06/21 07:13:28;;;;;;;22.52;20.73;;;33.40;85.10;;;;;;6287927;28;20218;-64
2021/06/21 07:16:32;;;;;;;21.52;20.02;;;33.80;81.50;;;;;;6292664;28;20222;-64
2021/06/21 07:19:35;;;;;;;20.60;19.17;;;34.00;81.00;;;;;;6283036;28;20218;-64
2021/06/21 07:22:38;;;;;;;22.40;20.67;;;34.60;79.10;;;;;;6299337;28;20229;-64
2021/06/21 07:25:41;;;;;;;20.85;19.25;;;35.10;76.10;;;;;;6299319;28;20226;-64
2021/06/21 07:28:47;;;;;;;22.58;20.80;;;35.80;73.90;;;;;;6299198;28;20249;-64
2021/06/21 07:31:50;;;;;;;21.13;19.70;;;36.30;71.40;;;;;;6299372;28;20238;-63
2021/06/21 07:34:53;;;;;;;21.23;19.83;;;37.20;67.80;;;;;;6298706;28;20763;-63
2021/06/21 07:37:57;;;;;;;20.92;19.33;;;37.60;65.10;;;;;;6295395;28;20697;-64
2021/06/21 07:41:00;;;;;;;20.38;19.00;;;37.80;64.00;;;;;;6298760;28;20230;-66
2021/06/21 07:44:05;;;;;;;22.58;20.42;;;37.80;62.10;;;;;;6299404;28;20562;-64
2021/06/21 07:47:08;;;;;;;20.88;19.38;;;37.50;60.90;;;;;;6298591;28;20241;-66
2021/06/21 07:50:12;;;;;;;20.50;18.88;;;37.10;62.00;;;;;;6295357;28;20681;-65
2021/06/21 07:53:16;;;;;;;20.00;18.60;;;37.10;61.90;;;;;;6291156;28;20253;-63
2021/06/21 07:56:20;;;;;;;22.60;20.65;;;36.90;62.00;;;;;;6295111;28;20226;-63
2021/06/21 07:59:24;;;;;;;21.10;19.25;;;36.40;61.80;;;;;;6284867;28;20241;-64
2021/06/21 08:02:28;;;;;;;19.52;17.83;;;36.00;63.00;;;;;;6290913;28;20214;-65
2021/06/21 08:05:31;;;;;;;20.48;18.90;;;35.60;63.50;;;;;;6278913;28;20257;-68
2021/06/21 08:08:35;;;;;;;19.42;17.83;;;35.50;63.80;;;;;;6278558;28;20226;-63
2021/06/21 08:11:39;;;;;;;20.55;19.02;;;35.50;64.90;;;;;;6291661;28;20195;-65
2021/06/21 08:14:43;;;;;;;21.02;19.23;;;35.30;64.70;;;;;;6293033;28;20610;-64
2021/06/21 08:17:46;;;;;;;21.65;19.85;;;35.10;64.70;;;;;;6287026;28;20211;-66
2021/06/21 08:20:50;;;;;;;22.05;20.25;;;34.80;65.30;;;;;;6295771;28;20206;-64
2021/06/21 08:23:54;;;;;;;20.33;18.40;;;34.40;66.60;;;;;;6285188;28;20226;-66
2021/06/21 08:27:00;;;;;;;20.35;18.85;;;34.20;67.00;;;;;;6289383;28;20673;-66
2021/06/21 08:30:07;;;;;;;19.52;18.10;;;34.10;67.10;;;;;;6306119;28;20229;-65
2021/06/21 08:33:11;;;;;;;21.38;19.42;;;34.10;67.10;;;;;;6319184;28;20766;-65
2021/06/21 08:36:14;;;;;;;21.05;19.35;;;34.30;66.90;;;;;;6326799;28;20230;-66
2021/06/21 08:39:18;;;;;;;22.23;19.33;;;34.10;67.70;;;;;;6315199;28;20221;-63
2021/06/21 08:42:21;;;;;;;20.20;17.80;;;34.30;66.20;;;;;;6302016;28;20720;-63
2021/06/21 08:45:25;;;;;;;20.50;18.15;;;34.40;65.70;;;;;;6302947;28;20229;-65
2021/06/21 08:48:30;;;;;;;21.92;19.95;;;34.50;65.20;;;;;;6302593;28;20230;-64
2021/06/21 08:51:36;;;;;;;21.25;19.25;;;34.70;64.10;;;;;;6316789;28;20226;-65
2021/06/21 08:54:39;;;;;;;20.48;18.63;;;34.60;63.30;;;;;;6315466;28;20236;-65
2021/06/21 08:57:45;;;;;;;23.75;19.45;;;34.60;63.20;;;;;;6318619;28;20221;-65
2021/06/21 09:00:49;;;;;;;19.65;17.70;;;34.60;63.10;;;;;;6318380;28;20230;-65
2021/06/21 09:03:53;;;;;;;20.40;18.40;;;34.60;62.40;;;;;;6302112;28;20689;-65
2021/06/21 09:07:15;;;;;;;21.02;18.75;;;34.80;62.60;;;;;;6301698;28;20233;-66
2021/06/21 09:10:24;;;;;;;22.00;19.00;;;34.70;62.40;;;;;;6311341;28;20226;-64
2021/06/21 09:13:33;;;;;;;19.33;17.30;;;34.60;61.60;;;;;;6327282;28;20305;-64
2021/06/21 09:16:44;;;;;;;18.90;17.02;;;34.60;61.10;;;;;;6327131;28;20248;-64
2021/06/21 09:19:52;;;;;;;24.80;16.58;;;34.80;60.80;;;;;;6327183;28;20226;-64
2021/06/21 09:23:01;;;;;;;25.05;19.15;;;34.90;60.70;;;;;;6326309;28;20704;-64
2021/06/21 09:42:29;;;;;;;24.95;17.95;;;34.60;59.80;;;;;;6143477;27;206710;-60
2021/06/21 09:45:32;;;;;;;21.02;16.90;;;35.30;57.70;;;;;;6396886;27;20220;-63
2021/06/21 09:48:37;;;;;;;26.77;18.27;;;35.40;56.50;;;;;;6341894;27;20229;-62
2021/06/21 09:51:41;;;;;;;25.02;16.00;;;35.30;56.30;;;;;;6308597;28;20287;-62
2021/06/21 09:54:44;;;;;;;23.25;17.13;;;35.30;56.30;;;;;;6320134;28;20212;-63
2021/06/21 09:57:59;;;;;;;28.83;17.98;;;35.00;55.00;;;;;;6312887;28;20197;-64
2021/06/21 10:01:09;;;;;;;20.00;15.52;;;35.00;55.50;;;;;;6306907;28;20206;-61
2021/06/21 10:04:27;;;;;;;20.58;18.38;;;35.20;56.10;;;;;;6302069;28;20277;-61
2021/06/21 10:07:33;;;;;;;22.23;16.88;;;35.30;55.90;;;;;;6309261;28;20331;-61
2021/06/21 10:10:36;;;;;;;22.45;17.25;;;35.40;56.50;;;;;;6303293;28;20214;-62
2021/06/21 10:13:41;;;;;;;26.60;15.45;;;35.30;57.10;;;;;;6307028;28;20194;-66
2021/06/21 10:16:46;;;;;;;25.65;15.93;;;35.30;56.80;;;;;;6309222;28;20646;-66
2021/06/21 10:19:50;;;;;;;25.77;16.10;;;35.30;55.80;;;;;;6306156;28;20226;-62
2021/06/21 10:22:55;;;;;;;24.45;15.90;;;34.90;56.00;;;;;;6319910;28;20201;-67
2021/06/21 10:25:58;;;;;;;26.35;15.95;;;34.90;56.20;;;;;;6319534;28;20197;-67
2021/06/21 10:29:07;;;;;;;23.40;14.13;;;34.80;55.70;;;;;;6298389;28;20223;-65
2021/06/21 10:32:10;;;;;;;22.27;15.43;;;34.80;56.30;;;;;;6293837;28;20191;-65
2021/06/21 10:35:17;;;;;;;24.63;13.70;;;34.90;55.20;;;;;;6294638;28;20195;-65
2021/06/21 10:38:21;;;;;;;28.92;14.65;;;35.00;54.10;;;;;;6286968;28;20203;-65
2021/06/21 10:41:24;;;;;;;25.35;16.05;;;35.10;55.50;;;;;;6285110;28;20203;-64
2021/06/21 10:44:56;;;;;;;27.23;15.20;;;35.20;55.70;;;;;;6423928;27;20528;-65
2021/06/21 10:53:54;;;;;;;30.73;13.82;;;35.20;52.30;;;;;;6358139;27;20555;-64
2021/06/21 10:56:59;;;;;;;28.63;13.50;;;35.20;52.60;;;;;;6300760;28;20245;-66
2021/06/21 11:00:13;;;;;;;30.65;14.02;;;35.10;53.10;;;;;;6295614;28;20234;-64
2021/06/21 11:03:34;;;;;;;20.73;12.90;;;35.00;52.20;;;;;;6295826;28;20222;-66
2021/06/21 11:06:42;;;;;;;22.45;13.13;;;34.90;52.70;;;;;;6284168;28;20223;-65
2021/06/21 11:09:48;;;;;;;25.50;13.52;;;34.90;52.00;;;;;;6295911;28;20226;-65
2021/06/21 11:12:51;;;;;;;28.33;13.40;;;35.10;51.40;;;;;;6295698;28;20230;-65
2021/06/21 11:16:30;;;;;;;24.85;14.15;;;35.30;51.50;;;;;;6295856;28;20306;-65
2021/06/21 11:19:36;;;;;;;22.70;13.05;;;35.50;53.10;;;;;;6320304;28;20233;-65
2021/06/21 11:22:45;;;;;;;31.30;13.65;;;35.60;53.50;;;;;;6320471;28;20226;-64
2021/06/21 11:25:50;;;;;;;26.17;14.30;;;35.60;51.60;;;;;;6320535;28;20229;-64
2021/06/21 11:28:53;;;;;;;36.55;13.50;;;35.60;51.60;;;;;;6320227;28;20230;-67
2021/06/21 11:32:00;;;;;;;27.88;13.18;;;35.50;50.30;;;;;;6319883;28;20319;-66
2021/06/21 11:35:05;;;;;;;23.55;11.00;;;35.50;50.30;;;;;;6319909;28;20222;-65
2021/06/21 11:38:24;;;;;;;29.48;12.65;;;35.40;49.10;;;;;;6320127;28;20229;-65
2021/06/21 11:41:30;;;;;;;19.80;11.40;;;35.30;48.40;;;;;;6319889;28;20680;-64
2021/06/21 11:44:48;;;;;;;27.55;11.95;;;35.30;48.80;;;;;;6300484;28;20238;-64
2021/06/21 11:47:52;;;;;;;32.63;13.07;;;35.40;47.80;;;;;;6294619;28;20238;-65
2021/06/21 11:50:56;;;;;;;32.95;12.65;;;35.10;48.50;;;;;;6298985;28;20222;-65
2021/06/21 11:54:01;;;;;;;28.88;11.68;;;35.10;49.10;;;;;;6294540;28;20241;-64
2021/06/21 11:57:07;;;;;;;23.85;11.98;;;35.40;46.90;;;;;;6313648;28;20232;-65
2021/06/21 12:00:12;;;;;;;24.33;11.98;;;35.60;47.30;;;;;;6319375;28;20576;-65
2021/06/21 12:03:16;;;;;;;27.58;12.93;;;35.60;49.00;;;;;;6304136;28;20688;-67
2021/06/21 12:06:19;;;;;;;25.73;12.75;;;35.70;49.50;;;;;;6278082;28;20242;-64
2021/06/21 12:09:23;;;;;;;29.98;13.60;;;35.80;49.20;;;;;;6277115;28;20241;-65
2021/06/21 12:12:30;;;;;;;32.78;13.07;;;35.70;48.50;;;;;;6282706;28;20245;-64
2021/06/21 12:15:34;;;;;;;24.90;12.00;;;35.70;48.80;;;;;;6301905;28;20228;-65
2021/06/21 12:18:37;;;;;;;27.90;12.82;;;35.60;48.20;;;;;;6302473;28;20230;-65
2021/06/21 12:21:42;;;;;;;27.30;13.82;;;35.80;48.80;;;;;;6302101;28;20559;-65
2021/06/21 12:24:45;;;;;;;24.33;13.13;;;35.80;48.70;;;;;;6302557;28;20223;-65
2021/06/21 12:27:50;;;;;;;32.35;13.35;;;36.00;49.10;;;;;;6300466;28;20226;-65
2021/06/21 12:30:55;;;;;;;32.35;13.05;;;36.10;49.30;;;;;;6301655;28;20230;-65
2021/06/21 12:33:59;;;;;;;28.48;13.95;;;35.90;49.50;;;;;;6302048;28;20234;-65
2021/06/21 12:37:12;;;;;;;30.90;12.05;;;35.60;49.90;;;;;;6302270;28;20237;-65
2021/06/21 12:40:18;;;;;;;44.53;12.32;;;35.50;49.60;;;;;;6302022;28;20807;-66
2021/06/21 12:43:24;;;;;;;21.35;9.57;;;35.70;48.80;;;;;;6301680;28;20230;-65
2021/06/21 12:46:29;;;;;;;33.67;11.10;;;35.70;47.50;;;;;;6301971;28;20239;-66
2021/06/21 12:49:32;;;;;;;22.52;10.43;;;35.80;47.20;;;;;;6301041;28;20660;-66
2021/06/21 12:52:36;;;;;;;24.02;10.77;;;35.80;46.70;;;;;;6301361;28;20230;-65
2021/06/21 12:55:39;;;;;;;26.98;11.50;;;35.80;47.20;;;;;;6300921;28;20566;-65
2021/06/21 12:58:44;;;;;;;33.25;10.70;;;35.80;48.00;;;;;;6302011;28;20286;-67
2021/06/21 13:01:48;;;;;;;28.10;11.88;;;35.70;47.60;;;;;;6300986;28;20673;-65
2021/06/21 13:04:59;;;;;;;30.48;11.93;;;35.40;48.40;;;;;;6305151;28;20309;-64
2021/06/21 13:08:02;;;;;;;30.67;11.20;;;35.30;48.50;;;;;;6300558;28;20237;-64
2021/06/21 13:11:07;;;;;;;28.13;11.30;;;35.20;47.90;;;;;;6300462;28;20238;-64
2021/06/21 13:14:12;;;;;;;32.10;11.15;;;35.30;48.70;;;;;;6299990;28;20241;-64
2021/06/21 13:17:19;;;;;;;29.80;11.32;;;35.20;48.60;;;;;;6300301;28;20226;-65
2021/06/21 13:20:24;;;;;;;28.95;10.48;;;35.20;48.30;;;;;;6300519;28;20237;-65
2021/06/21 13:23:46;;;;;;;22.23;10.85;;;35.30;48.60;;;;;;6300498;28;20223;-65
2021/06/21 13:26:50;;;;;;;28.08;11.90;;;35.30;48.40;;;;;;6300285;28;20234;-65
2021/06/21 13:29:58;;;;;;;27.15;11.15;;;35.30;48.20;;;;;;6300314;28;20247;-66
2021/06/21 13:33:05;;;;;;;25.73;10.63;;;35.30;48.50;;;;;;6289978;28;20542;-64
2021/06/21 13:36:08;;;;;;;24.02;12.27;;;35.50;49.10;;;;;;6298193;28;20226;-65
2021/06/21 13:39:11;;;;;;;29.23;10.90;;;35.40;47.80;;;;;;6299796;28;20244;-64
2021/06/21 13:42:14;;;;;;;26.35;12.27;;;35.50;48.40;;;;;;6300039;28;20230;-64
2021/06/21 13:45:25;;;;;;;26.02;11.57;;;35.70;48.10;;;;;;6276823;28;20234;-65
2021/06/21 13:48:28;;;;;;;20.73;9.98;;;35.30;48.70;;;;;;6275416;28;20227;-67
2021/06/21 13:51:31;;;;;;;24.50;9.90;;;35.30;48.40;;;;;;6297078;28;20234;-67
2021/06/21 13:54:34;;;;;;;27.77;10.60;;;35.50;48.10;;;;;;6299857;28;20229;-68
2021/06/21 13:57:40;;;;;;;31.00;11.15;;;35.40;47.20;;;;;;6300027;28;20206;-67
2021/06/21 14:00:48;;;;;;;24.80;10.73;;;35.30;47.80;;;;;;6299427;28;20743;-67
2021/06/21 14:03:53;;;;;;;29.35;12.00;;;35.30;48.70;;;;;;6299603;28;20222;-66
2021/06/21 14:06:57;;;;;;;22.55;10.27;;;35.30;49.20;;;;;;6299397;28;20233;-67
2021/06/21 14:10:00;;;;;;;23.33;9.70;;;35.30;48.50;;;;;;6300020;28;20230;-66
2021/06/21 14:13:03;;;;;;;17.63;10.07;;;35.30;46.70;;;;;;6299357;28;20238;-67
2021/06/21 14:16:08;;;;;;;18.90;10.30;;;35.30;48.00;;;;;;6299318;28;20693;-66
2021/06/21 14:19:12;;;;;;;26.15;10.30;;;35.30;49.30;;;;;;6299377;28;20238;-69
2021/06/21 14:22:16;;;;;;;28.02;9.52;;;35.40;49.20;;;;;;6300075;28;20230;-66
2021/06/21 14:25:20;;;;;;;25.20;10.48;;;35.50;49.10;;;;;;6300524;28;20234;-68
2021/06/21 14:28:24;;;;;;;30.92;11.02;;;35.50;46.70;;;;;;6299458;28;20226;-66
2021/06/21 14:31:31;;;;;;;26.73;10.30;;;35.40;48.30;;;;;;6298771;28;20704;-65
2021/06/21 14:34:35;;;;;;;29.75;10.57;;;35.50;48.40;;;;;;6299143;28;20230;-66
2021/06/21 14:37:38;;;;;;;19.52;12.38;;;35.40;48.10;;;;;;6298872;28;20316;-66
2021/06/21 14:40:45;;;;;;;24.90;13.75;;;35.20;49.60;;;;;;6299132;28;20251;-66
2021/06/21 14:43:48;;;;;;;22.83;11.95;;;34.80;50.30;;;;;;6287714;28;20666;-67
2021/06/21 14:46:52;;;;;;;22.98;11.88;;;34.50;51.20;;;;;;6298703;28;20229;-65
2021/06/21 14:50:12;;;;;;;20.60;11.15;;;33.80;51.60;;;;;;6298899;28;20259;-68
2021/06/21 14:53:15;;;;;;;17.35;10.80;;;33.30;52.20;;;;;;6298700;28;20223;-67
2021/06/21 14:56:19;;;;;;;25.05;11.00;;;32.90;52.70;;;;;;6298692;28;20234;-68
2021/06/21 14:59:22;;;;;;;19.35;10.55;;;32.60;53.10;;;;;;6298598;28;20234;-67
2021/06/21 15:02:27;;;;;;;22.23;9.73;;;32.30;53.20;;;;;;6287613;28;20231;-66
2021/06/21 15:05:31;;;;;;;25.65;10.43;;;32.10;53.50;;;;;;6299240;28;20230;-65
2021/06/21 15:08:34;;;;;;;20.80;9.80;;;31.90;53.90;;;;;;6299020;28;20234;-70
2021/06/21 15:11:37;;;;;;;18.98;9.80;;;31.90;54.40;;;;;;6298435;28;20248;-66
2021/06/21 15:14:40;;;;;;;14.02;9.05;;;32.00;54.80;;;;;;6298879;28;20230;-64
2021/06/21 15:17:47;;;;;;;19.55;9.90;;;32.20;54.80;;;;;;6298356;28;20234;-64
2021/06/21 15:20:50;;;;;;;21.08;8.90;;;32.30;55.00;;;;;;6298522;28;20668;-64
2021/06/21 15:23:53;;;;;;;20.45;10.45;;;32.40;55.30;;;;;;6273083;28;20231;-65
2021/06/21 15:26:57;;;;;;;21.98;10.73;;;32.20;55.30;;;;;;6271508;28;20734;-63
2021/06/21 15:30:00;;;;;;;21.60;11.75;;;32.10;56.20;;;;;;6270953;28;20678;-67
2021/06/21 15:33:05;;;;;;;17.77;9.48;;;32.00;56.90;;;;;;6271276;28;21546;-63
2021/06/21 15:36:09;;;;;;;16.08;10.25;;;32.00;57.00;;;;;;6271140;28;20231;-64
2021/06/21 15:39:13;;;;;;;22.27;10.55;;;32.00;57.50;;;;;;6274558;28;20235;-60
2021/06/21 15:42:16;;;;;;;20.40;9.25;;;32.00;58.00;;;;;;6278118;28;20233;-63
2021/06/21 15:45:22;;;;;;;18.63;10.82;;;32.00;58.00;;;;;;6277563;28;20234;-65
2021/06/21 15:48:27;;;;;;;17.70;10.98;;;31.80;58.30;;;;;;6277781;28;20690;-61
2021/06/21 15:51:35;;;;;;;26.77;12.88;;;31.80;58.40;;;;;;6299218;28;20234;-62
2021/06/21 15:54:38;;;;;;;22.50;11.63;;;32.00;58.50;;;;;;6302184;28;20222;-61
2021/06/21 15:57:44;;;;;;;25.35;11.23;;;31.90;58.70;;;;;;6301989;28;20664;-62
2021/06/21 16:00:49;;;;;;;17.92;10.88;;;32.10;58.80;;;;;;6302170;28;20226;-63
2021/06/21 16:03:54;;;;;;;22.88;11.23;;;32.10;59.10;;;;;;6301850;28;20222;-62
2021/06/21 16:06:59;;;;;;;20.35;10.10;;;32.20;59.10;;;;;;6302719;28;20218;-61
2021/06/21 16:10:03;;;;;;;20.75;11.55;;;32.20;59.20;;;;;;6302550;28;20566;-63